Inicio METAR Ruta Wind Satelite

Informe Meteorológico

Fecha: 2020/09/22 23:09:51 Local
2020.09.23 04:09 UTC


Estado: VIGENTE
Operación:VFR
Barranquilla / Ernestocortissoz, Colombia (SKBQ) 10-53N 074-47W 30M
2020.09.23 0400 UTC
Wind: Variable at 2 MPH (2 KT):0
Visibility: greater than 7 mile(s):0
Sky conditions: mostly clear
Temperature: 80 F (27 C)
Dew Point: 77 F (25 C)
Relative Humidity: 88%
Pressure (altimeter): 29.84 in. Hg (1010 hPa)
ob: SKBQ 230400Z VRB02KT 9999 FEW015 27/25 A2984 NOSIG
cycle: 4

SKBQ 230200Z VRB02KT 9999 FEW015 26/25 A2985 NOSIG
SKBQ 230100Z 26003KT 230V320 9999 FEW015 27/24 A2981 NOSIG
SKBQ 230000Z 31004KT 270V010 9999 FEW015 29/24 A2979 NOSIG
SKBQ 222300Z VRB04KT 9999 FEW015 29/23 A2977 NOSIG
SKBQ 222200Z VRB04KT 9999 FEW015 31/23 A2976 NOSIG

2020/09/22 18:43
TAF SKBQ 221630Z 2218/2318 VRB03KT 9999 FEW015
TEMPO 2220/2224 TSRA FEW015CB SCT070
BECMG 2221/2223 36010KT
BECMG 2304/2306 VRB03KT
TEMPO 2309/2312 5000 BR SCT010 SCT070
TEMPO 2315/2318 TSRA SCT015CB SCT070 TX32/2218Z TN25/2310Z